You are listening to:
LTFJ Del/Gnd/Twr - Istanbul, Turkey

LTFJ 240150Z 06005KT 9999 SCT035 18/16 Q1012 NOSIG RMK RWY24 05003KT

If stream doesn't start automatically press the play button
If stream stops then reload player then press play